Stefarion — DJ2142 — position and weather

sailwx.info

Track history (hours):
 
Tides and Currents Weather Stations Pressure Air Temp Water Temp Dewpoint Dewpoint Depression Visibility Wind Speed Wind Dir Waves Ship Positions

Stefarion

Last reported at 2014-Oct-06 22:20 UTC. Time now 2014-Nov-01 11:49 UTC.
Position N 51°30' E 006°52'.
Warning: this ship's position is 25 days out of date.

Length 12 m.

Type: Sailing vessel. MMSI: 211203080.

Date/timePositionNaut miles runAvg speedWind from/ knotsBaromVisibWave heightAir tempDewpointWater temp
2014-Oct-06 22:20N 51°30' E 006°52'27 3.8
2014-Oct-06 15:17N 51°47' E 006°19'19 4.5
2014-Oct-06 11:08N 51°52' E 005°50'7 7.5
2014-Oct-06 10:14N 51°54' E 005°40'5 7.3
2014-Oct-06 09:33N 51°54' E 005°32'4 4.0
2014-Oct-06 08:33N 51°55' E 005°26'5 5.3
2014-Oct-06 07:34N 51°58' E 005°19'8 8.2
2014-Oct-06 06:33N 52°02' E 005°07'8 8.2
2014-Oct-06 05:31N 52°09' E 005°00'8 8.6
2014-Oct-06 04:34N 52°18' E 005°01'7 6.8
2014-Oct-06 03:33N 52°23' E 004°54'5 5.2
2014-Oct-06 02:34N 52°24' E 004°46'0 0.0
2014-Oct-06 01:33N 52°24' E 004°46'0 0.0
2014-Oct-06 00:34N 52°24' E 004°46'0 0.0
2014-Oct-05 23:34N 52°24' E 004°46'0 0.0
2014-Oct-05 22:34N 52°24' E 004°46'0 0.0
2014-Oct-05 21:34N 52°24' E 004°46'0 0.0
2014-Oct-05 20:34N 52°24' E 004°46'0 0.0
2014-Oct-05 19:34N 52°24' E 004°46'0 0.0
2014-Oct-05 18:34N 52°24' E 004°46'0 0.0
2014-Oct-05 17:34N 52°24' E 004°46'1 0.8
2014-Oct-05 16:34N 52°25' E 004°48'0 0.0
2014-Oct-05 15:33N 52°25' E 004°48'0 0.0
2014-Oct-05 14:34N 52°25' E 004°48'0 0.0
2014-Oct-05 13:34N 52°25' E 004°48'0 0.0
2014-Oct-05 12:34N 52°25' E 004°48'0 0.0
2014-Oct-05 11:34N 52°25' E 004°48'4 4.0
2014-Oct-05 10:33N 52°23' E 004°54'7 7.0
2014-Oct-05 09:33N 52°18' E 005°01'9 8.7
2014-Oct-05 08:32N 52°09' E 005°00'7 7.2
2014-Oct-05 07:33N 52°03' E 005°06'7 7.2
2014-Oct-05 06:33N 51°59' E 005°16'4 4.2
2014-Oct-05 05:33N 51°57' E 005°22'5 4.6
2014-Oct-05 04:30N 51°54' E 005°27'8 8.3
2014-Oct-05 03:32N 51°54' E 005°40'49 1.7
2014-Oct-03 23:32N 51°21' E 006°39'9 8.7
2014-Oct-03 22:33N 51°14' E 006°46'6 5.7
2014-Oct-03 21:33N 51°09' E 006°49'124 7.5
2014-Oct-03 05:07N 49°23' E 008°30'5 8.3
2014-Oct-03 04:33N 49°19' E 008°27'0 0.0
2014-Oct-02 19:33N 49°18' E 008°28'0 0.0
2014-Oct-02 18:33N 49°18' E 008°28'0 0.0
2014-Oct-02 17:33N 49°18' E 008°28'0 0.0
2014-Oct-02 16:32N 49°18' E 008°28'0 0.0
2014-Oct-02 15:32N 49°18' E 008°28'0 0.0
2014-Oct-02 14:30N 49°18' E 008°28'0 0.0
2014-Oct-02 13:33N 49°18' E 008°28'0 0.0
2014-Oct-02 12:30N 49°18' E 008°28'0 0.0
2014-Oct-02 11:31N 49°18' E 008°28'3 0.2
2014-Oct-01 16:33N 49°15' E 008°26'1111.3
2014-Oct-01 15:34N 49°05' E 008°20'1211.9
2014-Oct-01 14:33N 48°55' E 008°10'9 6.9
2014-Oct-01 13:11N 48°47' E 008°02'6 9.7
2014-Oct-01 12:32N 48°42' E 007°56'2 1.8
2014-Oct-01 11:33N 48°41' E 007°54'1 0.0
2014-Sep-30 18:31N 48°41' E 007°55'15 5.1
2014-Sep-30 15:29N 48°54' E 008°09'4 3.7
2014-Sep-30 14:25N 48°57' E 008°12'3 3.6
2014-Sep-30 13:31N 48°59' E 008°16'3 3.5
2014-Sep-30 12:33N 49°02' E 008°18'4 4.0
2014-Sep-30 11:33N 49°05' E 008°21'4 4.0
2014-Sep-30 10:33N 49°09' E 008°22'4 4.0
2014-Sep-30 09:33N 49°13' E 008°23'4 4.1
2014-Sep-30 08:33N 49°16' E 008°27'3 3.2
2014-Sep-30 07:33N 49°20' E 008°27'  
2014-Sep-28 02:30N 49°19' E 008°29'9 9.5
2014-Sep-28 01:33N 49°10' E 008°22'1110.8
2014-Sep-28 00:33N 49°00' E 008°17'1110.8
2014-Sep-27 23:33N 48°52' E 008°07'3 2.3
2014-Sep-27 22:24N 48°49' E 008°06'6 7.2
2014-Sep-27 21:33N 48°46' E 007°59'5 5.3
2014-Sep-27 20:33N 48°41' E 007°55'64 4.9
2014-Sep-27 07:33N 47°39' E 007°32'7 6.9
2014-Sep-27 06:33N 47°34' E 007°38'1 1.5
2014-Sep-27 05:33N 47°33' E 007°39'0 0.0
2014-Sep-27 04:33N 47°33' E 007°39'0 0.0
2014-Sep-27 03:33N 47°33' E 007°39'0 0.0
2014-Sep-27 02:33N 47°33' E 007°39'0 0.0
2014-Sep-27 01:33N 47°33' E 007°39'0 0.0
2014-Sep-27 00:33N 47°33' E 007°39'0 0.0
2014-Sep-26 23:34N 47°33' E 007°39'0 0.0
2014-Sep-26 22:33N 47°33' E 007°39'  
Track history (hours):
 
Tides and Currents Weather Stations Pressure Air Temp Water Temp Dewpoint Dewpoint Depression Visibility Wind Speed Wind Dir Waves Ship Positions

Stefarion

Last reported at 2014-Oct-06 22:20 UTC. Time now 2014-Nov-01 11:49 UTC.
Position N 51°30' E 006°52'.
Warning: this ship's position is 25 days out of date.

Length 12 m.

Type: Sailing vessel. MMSI: 211203080.

Date/timePositionNaut miles runAvg speedWind from/ knotsBaromVisibWave heightAir tempDewpointWater temp
2014-Oct-06 22:20N 51°30' E 006°52'27 3.8
2014-Oct-06 15:17N 51°47' E 006°19'19 4.5
2014-Oct-06 11:08N 51°52' E 005°50'7 7.5
2014-Oct-06 10:14N 51°54' E 005°40'5 7.3
2014-Oct-06 09:33N 51°54' E 005°32'4 4.0
2014-Oct-06 08:33N 51°55' E 005°26'5 5.3
2014-Oct-06 07:34N 51°58' E 005°19'8 8.2
2014-Oct-06 06:33N 52°02' E 005°07'8 8.2
2014-Oct-06 05:31N 52°09' E 005°00'8 8.6
2014-Oct-06 04:34N 52°18' E 005°01'7 6.8
2014-Oct-06 03:33N 52°23' E 004°54'5 5.2
2014-Oct-06 02:34N 52°24' E 004°46'0 0.0
2014-Oct-06 01:33N 52°24' E 004°46'0 0.0
2014-Oct-06 00:34N 52°24' E 004°46'0 0.0
2014-Oct-05 23:34N 52°24' E 004°46'0 0.0
2014-Oct-05 22:34N 52°24' E 004°46'0 0.0
2014-Oct-05 21:34N 52°24' E 004°46'0 0.0
2014-Oct-05 20:34N 52°24' E 004°46'0 0.0
2014-Oct-05 19:34N 52°24' E 004°46'0 0.0
2014-Oct-05 18:34N 52°24' E 004°46'0 0.0
2014-Oct-05 17:34N 52°24' E 004°46'1 0.8
2014-Oct-05 16:34N 52°25' E 004°48'0 0.0
2014-Oct-05 15:33N 52°25' E 004°48'0 0.0
2014-Oct-05 14:34N 52°25' E 004°48'0 0.0
2014-Oct-05 13:34N 52°25' E 004°48'0 0.0
2014-Oct-05 12:34N 52°25' E 004°48'0 0.0
2014-Oct-05 11:34N 52°25' E 004°48'4 4.0
2014-Oct-05 10:33N 52°23' E 004°54'7 7.0
2014-Oct-05 09:33N 52°18' E 005°01'9 8.7
2014-Oct-05 08:32N 52°09' E 005°00'7 7.2
2014-Oct-05 07:33N 52°03' E 005°06'7 7.2
2014-Oct-05 06:33N 51°59' E 005°16'4 4.2
2014-Oct-05 05:33N 51°57' E 005°22'5 4.6
2014-Oct-05 04:30N 51°54' E 005°27'8 8.3
2014-Oct-05 03:32N 51°54' E 005°40'49 1.7
2014-Oct-03 23:32N 51°21' E 006°39'9 8.7
2014-Oct-03 22:33N 51°14' E 006°46'6 5.7
2014-Oct-03 21:33N 51°09' E 006°49'124 7.5
2014-Oct-03 05:07N 49°23' E 008°30'5 8.3
2014-Oct-03 04:33N 49°19' E 008°27'0 0.0
2014-Oct-02 19:33N 49°18' E 008°28'0 0.0
2014-Oct-02 18:33N 49°18' E 008°28'0 0.0
2014-Oct-02 17:33N 49°18' E 008°28'0 0.0
2014-Oct-02 16:32N 49°18' E 008°28'0 0.0
2014-Oct-02 15:32N 49°18' E 008°28'0 0.0
2014-Oct-02 14:30N 49°18' E 008°28'0 0.0
2014-Oct-02 13:33N 49°18' E 008°28'0 0.0
2014-Oct-02 12:30N 49°18' E 008°28'0 0.0
2014-Oct-02 11:31N 49°18' E 008°28'3 0.2
2014-Oct-01 16:33N 49°15' E 008°26'1111.3
2014-Oct-01 15:34N 49°05' E 008°20'1211.9
2014-Oct-01 14:33N 48°55' E 008°10'9 6.9
2014-Oct-01 13:11N 48°47' E 008°02'6 9.7
2014-Oct-01 12:32N 48°42' E 007°56'2 1.8
2014-Oct-01 11:33N 48°41' E 007°54'1 0.0
2014-Sep-30 18:31N 48°41' E 007°55'15 5.1
2014-Sep-30 15:29N 48°54' E 008°09'4 3.7
2014-Sep-30 14:25N 48°57' E 008°12'3 3.6
2014-Sep-30 13:31N 48°59' E 008°16'3 3.5
2014-Sep-30 12:33N 49°02' E 008°18'4 4.0
2014-Sep-30 11:33N 49°05' E 008°21'4 4.0
2014-Sep-30 10:33N 49°09' E 008°22'4 4.0
2014-Sep-30 09:33N 49°13' E 008°23'4 4.1
2014-Sep-30 08:33N 49°16' E 008°27'3 3.2
2014-Sep-30 07:33N 49°20' E 008°27'  
2014-Sep-28 02:30N 49°19' E 008°29'9 9.5
2014-Sep-28 01:33N 49°10' E 008°22'1110.8
2014-Sep-28 00:33N 49°00' E 008°17'1110.8
2014-Sep-27 23:33N 48°52' E 008°07'3 2.3
2014-Sep-27 22:24N 48°49' E 008°06'6 7.2
2014-Sep-27 21:33N 48°46' E 007°59'5 5.3
2014-Sep-27 20:33N 48°41' E 007°55'64 4.9
2014-Sep-27 07:33N 47°39' E 007°32'7 6.9
2014-Sep-27 06:33N 47°34' E 007°38'1 1.5
2014-Sep-27 05:33N 47°33' E 007°39'0 0.0
2014-Sep-27 04:33N 47°33' E 007°39'0 0.0
2014-Sep-27 03:33N 47°33' E 007°39'0 0.0
2014-Sep-27 02:33N 47°33' E 007°39'0 0.0
2014-Sep-27 01:33N 47°33' E 007°39'0 0.0
2014-Sep-27 00:33N 47°33' E 007°39'0 0.0
2014-Sep-26 23:34N 47°33' E 007°39'0 0.0
2014-Sep-26 22:33N 47°33' E 007°39'  

Dump ship's entire track history